createdAt,value
2018-07-12T00:00:03.778Z,17.70
2018-07-12T00:01:03.693Z,17.78
2018-07-12T00:02:03.687Z,17.79
2018-07-12T00:03:03.673Z,17.68
2018-07-12T00:04:03.656Z,17.74
2018-07-12T00:05:03.712Z,17.70
2018-07-12T00:06:03.651Z,17.66
2018-07-12T00:07:03.626Z,17.64
2018-07-12T00:08:03.615Z,17.71
2018-07-12T00:09:03.607Z,17.58
2018-07-12T00:10:03.665Z,17.70
2018-07-12T00:11:03.584Z,17.64
2018-07-12T00:12:03.576Z,17.66
2018-07-12T00:13:03.568Z,17.68
2018-07-12T00:14:04.396Z,17.59
2018-07-12T00:15:03.598Z,17.68
2018-07-12T00:16:03.532Z,17.71
2018-07-12T00:17:03.524Z,17.75
2018-07-12T00:18:03.515Z,17.68
2018-07-12T00:19:03.495Z,17.63
2018-07-12T00:20:03.546Z,17.59
2018-07-12T00:21:03.475Z,17.71
2018-07-12T00:22:03.463Z,17.68
2018-07-12T00:23:03.454Z,17.68
2018-07-12T00:24:03.445Z,17.74
2018-07-12T00:25:03.498Z,17.75
2018-07-12T00:26:03.421Z,17.70
2018-07-12T00:27:03.409Z,17.75
2018-07-12T00:28:03.397Z,17.63
2018-07-12T00:29:03.403Z,17.72
2018-07-12T00:30:03.440Z,17.62
2018-07-12T00:31:03.389Z,17.58
2018-07-12T00:32:03.354Z,17.68
2018-07-12T00:33:03.349Z,17.71
2018-07-12T00:34:03.340Z,17.59
2018-07-12T00:35:10.959Z,17.62
2018-07-12T00:36:03.316Z,17.66
2018-07-12T00:37:03.311Z,17.59
2018-07-12T00:38:03.318Z,17.59
2018-07-12T00:39:03.283Z,17.58
2018-07-12T00:40:03.359Z,17.59
2018-07-12T00:41:03.312Z,17.64
2018-07-12T00:42:03.253Z,17.64
2018-07-12T00:43:03.241Z,17.63
2018-07-12T00:44:03.226Z,17.55
2018-07-12T00:45:03.295Z,17.56
2018-07-12T00:46:03.209Z,17.58
2018-07-12T00:47:03.198Z,17.54
2018-07-12T00:48:03.198Z,17.59
2018-07-12T00:49:03.184Z,17.62
2018-07-12T00:50:03.247Z,17.52
2018-07-12T00:51:03.164Z,17.62
2018-07-12T00:52:03.156Z,17.71
2018-07-12T00:53:03.131Z,17.58
2018-07-12T00:54:03.123Z,17.58
2018-07-12T00:55:03.186Z,17.62
2018-07-12T00:56:03.909Z,17.58
2018-07-12T00:57:03.098Z,17.59
2018-07-12T00:58:03.094Z,17.64
2018-07-12T00:59:03.070Z,17.58
2018-07-12T01:00:03.118Z,17.59
2018-07-12T01:01:03.047Z,17.59
2018-07-12T01:02:03.894Z,17.62
2018-07-12T01:03:03.027Z,17.55
2018-07-12T01:04:03.018Z,17.66
2018-07-12T01:05:03.005Z,17.62
2018-07-12T01:06:03.062Z,17.56
2018-07-12T01:07:02.993Z,17.56
2018-07-12T01:08:02.993Z,17.55
2018-07-12T01:09:02.968Z,17.52
2018-07-12T01:10:02.957Z,17.56
2018-07-12T01:11:03.002Z,17.56
2018-07-12T01:12:02.936Z,17.56
2018-07-12T01:13:02.929Z,17.52
2018-07-12T01:14:02.908Z,17.56
2018-07-12T01:15:02.902Z,17.56
2018-07-12T01:16:02.949Z,17.54
2018-07-12T01:17:03.387Z,17.56
2018-07-12T01:18:02.869Z,17.51
2018-07-12T01:19:02.862Z,17.58
2018-07-12T01:20:02.842Z,17.55
2018-07-12T01:21:02.903Z,17.56
2018-07-12T01:22:02.838Z,17.56
2018-07-12T01:23:02.811Z,17.55
2018-07-12T01:24:02.805Z,17.56
2018-07-12T01:25:02.796Z,17.62
2018-07-12T01:26:02.844Z,17.62
2018-07-12T01:27:02.772Z,17.71
2018-07-12T01:28:02.756Z,17.59
2018-07-12T01:29:02.745Z,17.66
2018-07-12T01:30:02.737Z,17.54
2018-07-12T01:31:02.799Z,17.56
2018-07-12T01:32:02.719Z,17.54
2018-07-12T01:33:02.714Z,17.62
2018-07-12T01:34:02.692Z,17.70
2018-07-12T01:35:02.683Z,17.59
2018-07-12T01:36:02.747Z,17.63
2018-07-12T01:37:02.669Z,17.66
2018-07-12T01:38:03.385Z,17.62
2018-07-12T01:39:02.642Z,17.54
2018-07-12T01:40:04.388Z,17.58
2018-07-12T01:41:02.683Z,17.63
2018-07-12T01:42:02.609Z,17.68
2018-07-12T01:43:02.595Z,17.52
2018-07-12T01:44:02.590Z,17.52
2018-07-12T01:45:02.576Z,17.49
2018-07-12T01:46:02.636Z,17.52
2018-07-12T01:47:02.551Z,17.62
2018-07-12T01:48:02.569Z,17.55
2018-07-12T01:49:02.529Z,17.58
2018-07-12T01:50:02.528Z,17.55
2018-07-12T01:51:02.576Z,17.56
2018-07-12T01:52:02.506Z,17.55
2018-07-12T01:53:02.492Z,17.58
2018-07-12T01:54:02.474Z,17.56
2018-07-12T01:55:02.465Z,17.58
2018-07-12T01:56:02.517Z,17.58
2018-07-12T01:57:02.449Z,17.59
2018-07-12T01:58:02.432Z,17.54
2018-07-12T01:59:03.388Z,17.54
2018-07-12T02:00:02.414Z,17.66
2018-07-12T02:01:02.470Z,17.56
2018-07-12T02:02:02.391Z,17.54
2018-07-12T02:03:02.381Z,17.58
2018-07-12T02:04:02.369Z,17.55
2018-07-12T02:05:02.366Z,17.68
2018-07-12T02:06:02.423Z,17.58
2018-07-12T02:07:02.338Z,17.62
2018-07-12T02:08:02.327Z,17.64
2018-07-12T02:09:02.316Z,17.59
2018-07-12T02:10:02.304Z,17.63
2018-07-12T02:11:02.373Z,17.54
2018-07-12T02:12:02.283Z,17.59
2018-07-12T02:13:02.279Z,17.64
2018-07-12T02:14:02.263Z,17.51
2018-07-12T02:15:02.253Z,17.56
2018-07-12T02:16:02.305Z,17.55
2018-07-12T02:17:02.276Z,17.58
2018-07-12T02:18:02.217Z,17.56
2018-07-12T02:19:02.218Z,17.64
2018-07-12T02:20:02.884Z,17.64
2018-07-12T02:21:02.250Z,17.72
2018-07-12T02:22:02.175Z,17.66
2018-07-12T02:23:02.161Z,17.71
2018-07-12T02:24:02.163Z,17.70
2018-07-12T02:25:02.150Z,17.63
2018-07-12T02:26:02.202Z,17.59
2018-07-12T02:27:02.124Z,17.72
2018-07-12T02:28:02.112Z,17.70
2018-07-12T02:29:02.098Z,17.59
2018-07-12T02:30:02.090Z,17.63
2018-07-12T02:31:02.137Z,17.70
2018-07-12T02:32:02.086Z,17.64
2018-07-12T02:33:02.057Z,17.62
2018-07-12T02:34:02.051Z,17.59
2018-07-12T02:35:02.109Z,17.55
2018-07-12T02:36:02.088Z,17.58
2018-07-12T02:37:02.021Z,17.59
2018-07-12T02:38:02.007Z,17.49
2018-07-12T02:39:01.993Z,17.59
2018-07-12T02:40:01.991Z,17.55
2018-07-12T02:41:05.453Z,17.58
2018-07-12T02:42:01.960Z,17.54
2018-07-12T02:43:01.949Z,17.46
2018-07-12T02:44:01.948Z,17.44
2018-07-12T02:45:01.927Z,17.44
2018-07-12T02:46:01.995Z,17.43
2018-07-12T02:47:01.908Z,17.44
2018-07-12T02:48:01.900Z,17.44
2018-07-12T02:49:01.914Z,17.44
2018-07-12T02:50:01.875Z,17.44
2018-07-12T02:51:01.871Z,17.40
2018-07-12T02:52:01.923Z,17.43
2018-07-12T02:53:01.844Z,17.34
2018-07-12T02:54:01.854Z,17.37
2018-07-12T02:55:01.821Z,17.33
2018-07-12T02:56:01.830Z,17.26
2018-07-12T02:57:01.863Z,17.30
2018-07-12T02:58:01.796Z,17.30
2018-07-12T02:59:01.783Z,17.34
2018-07-12T03:00:01.766Z,17.31
2018-07-12T03:01:01.756Z,17.30
2018-07-12T03:02:01.954Z,17.23
2018-07-12T03:03:01.739Z,17.28
2018-07-12T03:04:01.725Z,17.23
2018-07-12T03:05:01.715Z,17.22
2018-07-12T03:06:01.705Z,17.28
2018-07-12T03:07:01.755Z,17.12
2018-07-12T03:08:01.692Z,17.18
2018-07-12T03:09:01.668Z,17.16
2018-07-12T03:10:01.662Z,17.14
2018-07-12T03:11:01.667Z,17.16
2018-07-12T03:12:01.712Z,17.12
2018-07-12T03:13:01.630Z,17.15
2018-07-12T03:14:01.619Z,17.06
2018-07-12T03:15:01.609Z,17.04
2018-07-12T03:16:01.595Z,17.08
2018-07-12T03:17:01.648Z,17.06
2018-07-12T03:18:01.573Z,17.07
2018-07-12T03:19:01.567Z,17.08
2018-07-12T03:20:01.555Z,17.01
2018-07-12T03:21:01.537Z,17.00
2018-07-12T03:22:01.606Z,17.00
2018-07-12T03:23:02.377Z,17.01
2018-07-12T03:24:01.513Z,17.03
2018-07-12T03:25:01.499Z,16.98
2018-07-12T03:26:01.490Z,17.04
2018-07-12T03:27:01.538Z,16.98
2018-07-12T03:28:01.463Z,16.94
2018-07-12T03:29:02.382Z,16.94
2018-07-12T03:30:01.443Z,16.91
2018-07-12T03:31:01.436Z,16.91
2018-07-12T03:32:09.029Z,16.83
2018-07-12T03:33:09.585Z,16.85
2018-07-12T03:34:09.569Z,16.89
2018-07-12T03:35:09.574Z,16.86
2018-07-12T03:36:01.447Z,16.83
2018-07-12T03:37:01.436Z,16.79
2018-07-12T03:38:01.373Z,16.81
2018-07-12T03:39:01.359Z,16.91
2018-07-12T03:40:09.445Z,16.83
2018-07-12T03:41:09.473Z,16.73
2018-07-12T03:42:09.589Z,16.73
2018-07-12T03:43:08.852Z,16.79
2018-07-12T03:44:08.831Z,16.79
2018-07-12T03:45:08.822Z,16.66
2018-07-12T03:46:01.267Z,16.67
2018-07-12T03:47:01.347Z,16.78
2018-07-12T03:48:01.258Z,16.76
2018-07-12T03:49:01.240Z,16.66
2018-07-12T03:50:01.227Z,16.81
2018-07-12T03:51:01.224Z,16.78
2018-07-12T03:52:01.276Z,16.76
2018-07-12T03:53:01.200Z,16.76
2018-07-12T03:54:01.180Z,16.71
2018-07-12T03:55:01.754Z,16.66
2018-07-12T03:56:01.166Z,16.78
2018-07-12T03:57:01.249Z,16.78
2018-07-12T03:58:01.201Z,16.78
2018-07-12T03:59:01.131Z,16.88
2018-07-12T04:00:01.128Z,16.73
2018-07-12T04:01:01.109Z,16.89
2018-07-12T04:02:01.335Z,16.81
2018-07-12T04:03:01.084Z,16.83
2018-07-12T04:04:01.070Z,16.79
2018-07-12T04:05:01.061Z,16.79
2018-07-12T04:06:01.053Z,16.85
2018-07-12T04:07:01.103Z,16.86
2018-07-12T04:08:01.029Z,16.86
2018-07-12T04:09:01.017Z,16.86
2018-07-12T04:10:01.012Z,16.86
2018-07-12T04:11:01.053Z,16.86
2018-07-12T04:12:01.056Z,16.94
2018-07-12T04:13:00.973Z,16.91
2018-07-12T04:14:00.965Z,17.04
2018-07-12T04:15:00.964Z,16.98
2018-07-12T04:16:03.749Z,16.96
2018-07-12T04:17:00.998Z,17.00
2018-07-12T04:18:00.921Z,17.01
2018-07-12T04:19:00.916Z,17.08
2018-07-12T04:20:00.906Z,17.08
2018-07-12T04:21:00.890Z,17.07
2018-07-12T04:22:00.943Z,17.14
2018-07-12T04:23:00.868Z,17.11
2018-07-12T04:24:00.854Z,17.16
2018-07-12T04:25:00.846Z,17.22
2018-07-12T04:26:00.837Z,17.12
2018-07-12T04:27:00.887Z,17.22
2018-07-12T04:28:00.815Z,17.22
2018-07-12T04:29:00.802Z,17.19
2018-07-12T04:30:00.794Z,17.28
2018-07-12T04:31:00.781Z,17.30
2018-07-12T04:32:00.782Z,17.31
2018-07-12T04:33:00.827Z,17.38
2018-07-12T04:34:00.750Z,17.44
2018-07-12T04:35:00.740Z,17.44
2018-07-12T04:36:00.728Z,17.46
2018-07-12T04:37:01.260Z,17.52
2018-07-12T04:38:00.775Z,17.55
2018-07-12T04:39:00.694Z,17.51
2018-07-12T04:40:00.683Z,17.55
2018-07-12T04:41:00.672Z,17.62
2018-07-12T04:42:00.659Z,17.56
2018-07-12T04:43:00.720Z,17.62
2018-07-12T04:44:00.647Z,17.70
2018-07-12T04:45:00.628Z,17.62
2018-07-12T04:46:00.633Z,17.64
2018-07-12T04:47:00.614Z,17.71
2018-07-12T04:48:00.661Z,17.70
2018-07-12T04:49:00.592Z,17.77
2018-07-12T04:50:00.594Z,17.78
2018-07-12T04:51:00.572Z,17.81
2018-07-12T04:52:00.556Z,17.90
2018-07-12T04:53:00.627Z,17.89
2018-07-12T04:54:00.529Z,17.92
2018-07-12T04:55:00.533Z,17.92
2018-07-12T04:56:00.507Z,17.93
2018-07-12T04:57:00.543Z,17.97
2018-07-12T04:58:00.829Z,18.08
2018-07-12T04:59:00.476Z,18.03
2018-07-12T05:00:00.489Z,18.10
2018-07-12T05:01:00.475Z,18.03
2018-07-12T05:02:00.443Z,18.17
2018-07-12T05:03:00.504Z,18.23
2018-07-12T05:04:00.426Z,18.23
2018-07-12T05:05:00.419Z,18.21
2018-07-12T05:06:00.404Z,18.10
2018-07-12T05:07:00.406Z,18.21
2018-07-12T05:08:00.477Z,18.23
2018-07-12T05:09:00.368Z,18.32
2018-07-12T05:10:00.365Z,18.29
2018-07-12T05:11:00.363Z,18.32
2018-07-12T05:12:00.341Z,18.32
2018-07-12T05:13:00.393Z,18.20
2018-07-12T05:14:00.316Z,18.25
2018-07-12T05:15:00.313Z,18.36
2018-07-12T05:16:00.296Z,18.29
2018-07-12T05:17:00.288Z,18.30
2018-07-12T05:18:00.349Z,18.33
2018-07-12T05:19:01.267Z,18.39
2018-07-12T05:20:00.255Z,18.41
2018-07-12T05:21:00.241Z,18.42
2018-07-12T05:22:00.244Z,18.37
2018-07-12T05:23:00.287Z,18.47
2018-07-12T05:24:00.212Z,18.50
2018-07-12T05:25:00.226Z,18.47
2018-07-12T05:26:00.196Z,18.48
2018-07-12T05:27:00.189Z,18.54
2018-07-12T05:28:00.231Z,18.52
2018-07-12T05:29:00.168Z,18.58
2018-07-12T05:30:00.142Z,18.63
2018-07-12T05:31:00.131Z,18.57
2018-07-12T05:32:00.122Z,18.69
2018-07-12T05:33:00.188Z,18.65
2018-07-12T05:34:00.106Z,18.60
2018-07-12T05:35:00.092Z,18.72
2018-07-12T05:36:00.085Z,18.66
2018-07-12T05:37:00.071Z,18.63
2018-07-12T05:38:00.117Z,18.66
2018-07-12T05:39:00.096Z,18.60
2018-07-12T05:40:00.738Z,18.65
2018-07-12T05:41:00.024Z,18.66
2018-07-12T05:42:00.038Z,18.72
2018-07-12T05:43:00.081Z,18.70
2018-07-12T05:43:59.990Z,18.73
2018-07-12T05:44:59.984Z,18.76
2018-07-12T05:45:59.972Z,18.75
2018-07-12T05:46:59.967Z,18.76
2018-07-12T05:48:00.016Z,18.84
2018-07-12T05:48:59.942Z,18.88
2018-07-12T05:49:59.931Z,18.81
2018-07-12T05:50:59.920Z,18.76
2018-07-12T05:51:59.909Z,18.81
2018-07-12T05:52:59.974Z,18.81
2018-07-12T05:53:59.890Z,18.81
2018-07-12T05:54:59.892Z,18.81
2018-07-12T05:55:59.865Z,18.82
2018-07-12T05:56:59.857Z,18.90
2018-07-12T05:57:59.906Z,18.87
2018-07-12T05:58:59.842Z,19.06
2018-07-12T05:59:59.823Z,18.98
2018-07-12T06:01:00.740Z,19.08
2018-07-12T06:01:59.804Z,19.02
2018-07-12T06:03:00.339Z,19.08
2018-07-12T06:03:59.783Z,18.95
2018-07-12T06:04:59.779Z,18.98
2018-07-12T06:05:59.765Z,18.94
2018-07-12T06:07:00.747Z,18.95
2018-07-12T06:07:59.804Z,18.99
2018-07-12T06:08:59.729Z,19.02
2018-07-12T06:09:59.720Z,18.98
2018-07-12T06:10:59.712Z,19.02
2018-07-12T06:11:59.702Z,19.00
2018-07-12T06:12:59.759Z,19.00
2018-07-12T06:13:59.679Z,19.10
2018-07-12T06:14:59.678Z,19.11
2018-07-12T06:15:59.684Z,19.11
2018-07-12T06:16:59.655Z,19.14
2018-07-12T06:17:59.710Z,19.11
2018-07-12T06:18:59.671Z,19.14
2018-07-12T06:19:59.611Z,19.06
2018-07-12T06:20:59.607Z,19.10
2018-07-12T06:22:00.242Z,19.10
2018-07-12T06:22:59.657Z,19.07
2018-07-12T06:23:59.569Z,18.95
2018-07-12T06:24:59.561Z,19.00
2018-07-12T06:25:59.550Z,19.07
2018-07-12T06:26:59.539Z,19.08
2018-07-12T06:27:59.529Z,19.23
2018-07-12T06:28:59.591Z,19.37
2018-07-12T06:29:59.539Z,19.39
2018-07-12T06:30:59.497Z,19.48
2018-07-12T06:31:59.486Z,19.48
2018-07-12T06:32:59.472Z,19.62
2018-07-12T06:33:59.527Z,19.76
2018-07-12T06:34:59.447Z,19.81
2018-07-12T06:35:59.462Z,19.94
2018-07-12T06:36:59.430Z,19.94
2018-07-12T06:37:59.417Z,20.10
2018-07-12T06:38:59.479Z,20.08
2018-07-12T06:39:59.394Z,20.13
2018-07-12T06:40:59.392Z,20.23
2018-07-12T06:41:59.385Z,20.31
2018-07-12T06:43:00.241Z,20.28
2018-07-12T06:43:59.461Z,20.29
2018-07-12T06:44:59.350Z,20.24
2018-07-12T06:45:59.339Z,20.42
2018-07-12T06:46:59.328Z,20.50
2018-07-12T06:47:59.311Z,20.51
2018-07-12T06:48:59.367Z,20.64
2018-07-12T06:49:59.289Z,20.72
2018-07-12T06:50:59.282Z,20.70
2018-07-12T06:51:59.270Z,20.79
2018-07-12T06:52:59.267Z,20.74
2018-07-12T06:53:59.311Z,20.64
2018-07-12T06:54:59.234Z,20.54
2018-07-12T06:55:59.226Z,20.50
2018-07-12T06:56:59.213Z,20.39
2018-07-12T06:58:22.760Z,20.35
2018-07-12T06:58:59.259Z,20.36
2018-07-12T06:59:59.190Z,20.29
2018-07-12T07:00:59.193Z,20.16
2018-07-12T07:01:59.165Z,20.14
2018-07-12T07:02:59.157Z,20.11
2018-07-12T07:03:59.821Z,20.16
2018-07-12T07:04:59.145Z,20.14
2018-07-12T07:05:59.158Z,20.26
2018-07-12T07:06:59.104Z,20.23
2018-07-12T07:07:59.100Z,20.29
2018-07-12T07:08:59.146Z,20.32
2018-07-12T07:09:59.110Z,20.42
2018-07-12T07:10:59.069Z,20.39
2018-07-12T07:11:59.071Z,20.39
2018-07-12T07:12:59.055Z,20.38
2018-07-12T07:13:59.122Z,20.26
2018-07-12T07:14:59.030Z,20.32
2018-07-12T07:15:59.024Z,20.28
2018-07-12T07:16:59.000Z,20.08
2018-07-12T07:17:58.991Z,20.20
2018-07-12T07:18:59.047Z,20.13
2018-07-12T07:19:58.966Z,20.13
2018-07-12T07:21:06.480Z,20.13
2018-07-12T07:22:07.064Z,20.18
2018-07-12T07:22:58.939Z,20.13
2018-07-12T07:23:58.990Z,20.14
2018-07-12T07:24:58.914Z,20.10
2018-07-12T07:25:58.917Z,20.14
2018-07-12T07:26:58.895Z,20.17
2018-07-12T07:27:58.884Z,20.26
2018-07-12T07:28:58.936Z,20.29
2018-07-12T07:29:58.865Z,20.29
2018-07-12T07:30:58.868Z,20.16
2018-07-12T07:32:06.944Z,20.10
2018-07-12T07:33:11.891Z,20.13
2018-07-12T07:33:58.905Z,20.18
2018-07-12T07:34:58.813Z,20.17
2018-07-12T07:35:59.399Z,20.11
2018-07-12T07:36:58.785Z,20.16
2018-07-12T07:37:58.779Z,20.08
2018-07-12T07:38:58.824Z,20.11
2018-07-12T07:39:58.759Z,20.05
2018-07-12T07:40:58.770Z,20.06
2018-07-12T07:41:58.730Z,20.05
2018-07-12T07:42:58.748Z,19.99
2018-07-12T07:43:58.771Z,20.03
2018-07-12T07:44:58.704Z,20.08
2018-07-12T07:45:58.689Z,20.18
2018-07-12T07:47:06.211Z,20.16
2018-07-12T07:47:58.674Z,20.21
2018-07-12T07:48:58.740Z,20.24
2018-07-12T07:49:58.642Z,20.36
2018-07-12T07:50:58.635Z,20.48
2018-07-12T07:51:58.624Z,20.52
2018-07-12T07:52:58.613Z,20.59
2018-07-12T07:53:59.516Z,20.62
2018-07-12T07:54:58.599Z,20.79
2018-07-12T07:55:58.577Z,21.49
2018-07-12T07:56:58.607Z,22.02
2018-07-12T07:57:58.571Z,22.00
2018-07-12T07:58:58.624Z,22.06
2018-07-12T07:59:58.541Z,22.58
2018-07-12T08:00:58.541Z,22.94
2018-07-12T08:01:58.516Z,23.27
2018-07-12T08:02:58.506Z,23.19
2018-07-12T08:03:58.510Z,23.27
2018-07-12T08:04:58.549Z,23.22
2018-07-12T08:05:58.475Z,23.23
2018-07-12T08:06:58.472Z,23.22
2018-07-12T08:07:58.455Z,23.54
2018-07-12T08:08:58.444Z,23.87
2018-07-12T08:09:58.494Z,23.94
2018-07-12T08:10:58.481Z,23.95
2018-07-12T08:11:58.413Z,23.94
2018-07-12T08:12:58.402Z,23.83
2018-07-12T08:13:58.395Z,23.61
2018-07-12T08:14:58.489Z,23.50
2018-07-12T08:15:58.372Z,23.48
2018-07-12T08:16:58.364Z,23.33
2018-07-12T08:17:58.360Z,23.10
2018-07-12T08:18:58.342Z,23.01
2018-07-12T08:19:58.389Z,23.17
2018-07-12T08:20:58.318Z,23.25
2018-07-12T08:21:58.320Z,23.79
2018-07-12T08:22:58.345Z,23.78
2018-07-12T08:23:58.289Z,23.95
2018-07-12T08:24:58.348Z,23.87
2018-07-12T08:25:58.267Z,23.58
2018-07-12T08:26:58.253Z,23.31
2018-07-12T08:27:58.245Z,23.27
2018-07-12T08:28:58.234Z,23.09
2018-07-12T08:29:58.292Z,23.01
2018-07-12T08:30:58.225Z,22.97
2018-07-12T08:31:58.204Z,22.94
2018-07-12T08:32:58.195Z,22.92
2018-07-12T08:33:58.186Z,23.05
2018-07-12T08:34:58.236Z,22.98
2018-07-12T08:35:58.919Z,22.79
2018-07-12T08:36:58.169Z,22.75
2018-07-12T08:37:58.142Z,22.58
2018-07-12T08:39:00.649Z,22.46
2018-07-12T08:40:02.538Z,22.36
2018-07-12T08:40:58.109Z,22.33
2018-07-12T08:42:00.147Z,22.28
2018-07-12T08:42:58.121Z,22.46
2018-07-12T08:43:58.128Z,22.65
2018-07-12T08:44:58.141Z,22.61
2018-07-12T08:45:58.059Z,22.68
2018-07-12T08:46:58.056Z,22.72
2018-07-12T08:47:58.034Z,22.77
2018-07-12T08:48:58.026Z,22.76
2018-07-12T08:49:58.078Z,22.72
2018-07-12T08:50:58.001Z,22.88
2018-07-12T08:51:57.992Z,23.54
2018-07-12T08:52:58.018Z,23.66
2018-07-12T08:53:57.977Z,23.51
2018-07-12T08:54:58.034Z,23.50
2018-07-12T08:55:57.953Z,23.53
2018-07-12T08:56:58.921Z,23.51
2018-07-12T08:57:57.929Z,23.51
2018-07-12T08:58:57.923Z,23.46
2018-07-12T08:59:57.978Z,23.43
2018-07-12T09:00:57.901Z,23.36
2018-07-12T09:01:57.911Z,23.25
2018-07-12T09:02:57.886Z,23.33
2018-07-12T09:03:57.874Z,23.32
2018-07-12T09:04:57.925Z,23.32
2018-07-12T09:05:57.851Z,23.23
2018-07-12T09:06:57.837Z,23.23
2018-07-12T09:07:57.830Z,23.20
2018-07-12T09:08:57.815Z,23.43
2018-07-12T09:09:57.868Z,23.90
2018-07-12T09:10:57.793Z,24.08
2018-07-12T09:11:57.788Z,24.05
2018-07-12T09:12:57.773Z,24.02
2018-07-12T09:13:57.765Z,24.08
2018-07-12T09:14:57.812Z,24.12
2018-07-12T09:15:57.743Z,24.08
2018-07-12T09:16:57.733Z,23.93
2018-07-12T09:17:58.421Z,23.95
2018-07-12T09:18:57.718Z,23.90
2018-07-12T09:19:57.763Z,23.85
2018-07-12T09:20:57.690Z,23.90
2018-07-12T09:21:57.687Z,23.98
2018-07-12T09:22:57.674Z,24.09
2018-07-12T09:23:57.658Z,24.12
2018-07-12T09:24:57.993Z,24.06
2018-07-12T09:25:57.644Z,23.94
2018-07-12T09:26:57.629Z,23.88
2018-07-12T09:27:57.616Z,23.85
2018-07-12T09:28:57.675Z,23.70
2018-07-12T09:29:57.658Z,23.69
2018-07-12T09:30:57.587Z,23.65
2018-07-12T09:31:57.572Z,23.51
2018-07-12T09:32:57.569Z,23.43
2018-07-12T09:33:57.554Z,23.31
2018-07-12T09:34:57.676Z,23.17
2018-07-12T09:35:57.534Z,23.23
2018-07-12T09:36:57.971Z,23.20
2018-07-12T09:37:57.514Z,23.27
2018-07-12T09:38:58.422Z,23.27
2018-07-12T09:39:57.570Z,23.42
2018-07-12T09:40:57.484Z,23.40
2018-07-12T09:41:57.470Z,23.50
2018-07-12T09:42:57.531Z,23.47
2018-07-12T09:43:57.453Z,23.48
2018-07-12T09:44:57.460Z,23.42
2018-07-12T09:45:57.504Z,23.42
2018-07-12T09:46:57.455Z,23.28
2018-07-12T09:47:57.419Z,23.27
2018-07-12T09:48:57.404Z,23.22
2018-07-12T09:49:57.384Z,23.05
2018-07-12T09:50:57.442Z,23.07
2018-07-12T09:51:57.378Z,23.00
2018-07-12T09:52:57.356Z,23.02
2018-07-12T09:53:57.351Z,23.07
2018-07-12T09:54:57.339Z,23.19
2018-07-12T09:55:57.462Z,23.43
2018-07-12T09:56:57.315Z,24.69
2018-07-12T09:57:57.593Z,25.08
2018-07-12T09:58:57.303Z,25.24
2018-07-12T09:59:57.931Z,25.14
2018-07-12T10:00:57.334Z,24.95
2018-07-12T10:01:57.260Z,25.06
2018-07-12T10:02:57.251Z,24.98
2018-07-12T10:03:57.237Z,25.94
2018-07-12T10:04:57.243Z,26.06
2018-07-12T10:05:57.279Z,26.33
2018-07-12T10:06:57.214Z,27.41
2018-07-12T10:07:57.198Z,28.21
2018-07-12T10:08:57.187Z,28.68
2018-07-12T10:09:57.182Z,29.19
2018-07-12T10:10:57.235Z,29.65
2018-07-12T10:11:57.162Z,30.01
2018-07-12T10:12:57.151Z,30.19
2018-07-12T10:13:57.147Z,30.53
2018-07-12T10:14:57.132Z,30.86
2018-07-12T10:15:57.195Z,30.17
2018-07-12T10:16:57.110Z,29.73
2018-07-12T10:17:57.105Z,30.16
2018-07-12T10:18:57.090Z,30.19
2018-07-12T10:19:57.088Z,30.49
2018-07-12T10:20:57.500Z,29.86
2018-07-12T10:21:57.065Z,29.21
2018-07-12T10:22:57.054Z,28.59
2018-07-12T10:23:57.045Z,28.19
2018-07-12T10:24:57.034Z,27.87
2018-07-12T10:25:57.087Z,27.62
2018-07-12T10:26:57.023Z,27.51
2018-07-12T10:27:57.007Z,27.40
2018-07-12T10:28:56.998Z,27.22
2018-07-12T10:29:56.984Z,27.03
2018-07-12T10:30:57.059Z,27.37
2018-07-12T10:31:56.967Z,28.68
2018-07-12T10:32:56.958Z,29.80
2018-07-12T10:33:56.948Z,30.60
2018-07-12T10:34:56.942Z,31.23
2018-07-12T10:35:56.992Z,31.39
2018-07-12T10:36:56.939Z,31.66
2018-07-12T10:37:56.909Z,31.72
2018-07-12T10:38:56.909Z,32.29
2018-07-12T10:39:56.901Z,32.79
2018-07-12T10:40:56.953Z,33.42
2018-07-12T10:41:57.432Z,33.76
2018-07-12T10:42:56.864Z,32.75
2018-07-12T10:43:56.860Z,31.95
2018-07-12T10:44:56.856Z,31.12
2018-07-12T10:45:56.914Z,30.51
2018-07-12T10:46:56.855Z,30.02
2018-07-12T10:47:56.817Z,29.80
2018-07-12T10:48:56.809Z,29.51
2018-07-12T10:49:56.798Z,29.48
2018-07-12T10:50:56.847Z,29.51
2018-07-12T10:51:56.775Z,30.31
2018-07-12T10:52:56.775Z,30.92
2018-07-12T10:53:56.761Z,31.44
2018-07-12T10:54:56.750Z,31.12
2018-07-12T10:55:56.813Z,31.17
2018-07-12T10:56:56.733Z,31.19
2018-07-12T10:57:56.725Z,30.97
2018-07-12T10:58:56.734Z,31.36
2018-07-12T11:00:04.391Z,31.01
2018-07-12T11:00:56.764Z,30.45
2018-07-12T11:01:56.692Z,30.13
2018-07-12T11:02:56.677Z,29.82
2018-07-12T11:03:56.669Z,29.46
2018-07-12T11:04:56.658Z,29.30
2018-07-12T11:05:56.732Z,29.12
2018-07-12T11:06:56.655Z,29.42
2018-07-12T11:07:57.550Z,29.78
2018-07-12T11:08:56.688Z,29.92
2018-07-12T11:09:56.635Z,30.47
2018-07-12T11:10:57.048Z,31.06
2018-07-12T11:11:57.469Z,31.44
2018-07-12T11:12:56.605Z,31.44
2018-07-12T11:13:56.575Z,31.17
2018-07-12T11:14:56.580Z,31.01
2018-07-12T11:15:56.628Z,30.61
2018-07-12T11:16:56.553Z,30.45
2018-07-12T11:18:05.615Z,30.20
2018-07-12T11:18:56.530Z,31.06
2018-07-12T11:19:56.549Z,31.36
2018-07-12T11:20:56.591Z,32.28
2018-07-12T11:21:56.503Z,32.99
2018-07-12T11:22:56.494Z,32.82
2018-07-12T11:23:56.487Z,32.56
2018-07-12T11:24:56.477Z,32.44
2018-07-12T11:25:56.509Z,31.81
2018-07-12T11:26:56.519Z,31.48
2018-07-12T11:27:56.447Z,31.13
2018-07-12T11:28:56.433Z,31.17
2018-07-12T11:29:56.428Z,31.91
2018-07-12T11:30:56.417Z,32.11
2018-07-12T11:31:56.496Z,32.84
2018-07-12T11:32:56.399Z,32.82
2018-07-12T11:33:56.420Z,32.78
2018-07-12T11:34:56.382Z,33.26
2018-07-12T11:35:56.374Z,33.41
2018-07-12T11:36:56.458Z,32.96
2018-07-12T11:37:56.352Z,32.67
2018-07-12T11:38:57.011Z,32.04
2018-07-12T11:39:56.338Z,31.56
2018-07-12T11:40:56.332Z,31.16
2018-07-12T11:41:56.387Z,30.94
2018-07-12T11:42:56.319Z,30.77
2018-07-12T11:43:56.297Z,30.64
2018-07-12T11:44:56.288Z,30.61
2018-07-12T11:45:56.281Z,31.20
2018-07-12T11:46:56.361Z,31.36
2018-07-12T11:47:56.258Z,31.73
2018-07-12T11:48:56.249Z,32.74
2018-07-12T11:49:56.244Z,32.75
2018-07-12T11:50:56.291Z,32.66
2018-07-12T11:51:56.288Z,32.40
2018-07-12T11:52:56.223Z,33.26
2018-07-12T11:53:56.211Z,33.56
2018-07-12T11:54:56.194Z,34.24
2018-07-12T11:55:56.188Z,34.87
2018-07-12T11:56:56.246Z,34.64
2018-07-12T11:57:56.171Z,33.73
2018-07-12T11:58:56.167Z,33.26
2018-07-12T11:59:57.011Z,32.87
2018-07-12T12:00:56.139Z,32.70
2018-07-12T12:01:56.250Z,32.44
2018-07-12T12:02:56.133Z,32.18
2018-07-12T12:03:56.114Z,31.92
2018-07-12T12:04:56.105Z,31.75
2018-07-12T12:05:56.094Z,31.50
2018-07-12T12:06:56.176Z,31.32
2018-07-12T12:07:56.077Z,31.14
2018-07-12T12:08:56.069Z,31.07
2018-07-12T12:09:56.055Z,30.82
2018-07-12T12:10:56.044Z,30.57
2018-07-12T12:11:56.134Z,30.22
2018-07-12T12:12:56.035Z,30.01
2018-07-12T12:13:56.020Z,29.86
2018-07-12T12:14:56.035Z,29.68
2018-07-12T12:15:56.009Z,29.42
2018-07-12T12:16:56.052Z,29.41
2018-07-12T12:17:56.547Z,29.16
2018-07-12T12:18:55.966Z,29.27
2018-07-12T12:19:55.958Z,29.39
2018-07-12T12:20:56.519Z,30.11
2018-07-12T12:21:56.005Z,31.01
2018-07-12T12:22:55.928Z,32.14
2018-07-12T12:23:55.937Z,32.87
2018-07-12T12:24:55.916Z,33.50
2018-07-12T12:25:55.899Z,34.08
2018-07-12T12:26:55.976Z,34.22
2018-07-12T12:27:55.975Z,33.81
2018-07-12T12:28:55.882Z,34.44
2018-07-12T12:30:04.102Z,35.18
2018-07-12T12:30:55.858Z,35.45
2018-07-12T12:31:55.918Z,35.37
2018-07-12T12:32:55.840Z,35.26
2018-07-12T12:34:00.753Z,34.99
2018-07-12T12:35:05.841Z,34.40
2018-07-12T12:35:55.938Z,34.99
2018-07-12T12:36:55.884Z,34.53
2018-07-12T12:37:55.794Z,34.49
2018-07-12T12:38:55.786Z,34.28
2018-07-12T12:39:55.787Z,34.10
2018-07-12T12:40:55.768Z,33.95
2018-07-12T12:41:55.868Z,34.05
2018-07-12T12:42:55.749Z,34.28
2018-07-12T12:43:55.740Z,33.81
2018-07-12T12:44:55.738Z,33.41
2018-07-12T12:45:55.721Z,33.32
2018-07-12T12:46:55.777Z,33.18
2018-07-12T12:47:55.704Z,32.87
2018-07-12T12:48:55.699Z,32.44
2018-07-12T12:49:55.684Z,33.47
2018-07-12T12:50:55.747Z,34.35
2018-07-12T12:51:55.747Z,34.99